Česky Dansk Deutsch English Español Suomi Français Magyar Italiano Nederlands norsk Polski Português svenska Türkçe

 

Het Weer

Gorna Orechovista (Bulgarije)

11:30, 18 augustus 2016 (GMT)

NWNNE
WE
SWSSE
Home            
Gorna Orechovista Rousse Plovdiv Bucuresti / Imh Bucuresti Otopeni Burgas Craiova Varna Sofia Observ. Chrysoupoli Airport Alexandroupoli Airport Kogalniceanu Corlu Nis Sibiu Tulcea Canakkale Skopje-Petrovec Camp Bondsteel Istanbul / Ataturk Limnos Airport Thessaloniki Airport Kaxul - The South of Moldova

Om een weerknop op uw website of weblog te plaatsen, copieer onderstaande code en plak die in uw pagina. In het eerste vakje staat HTML-code, in het tweede vakje UBB-code.


Add to Google

Details

Wind speed:2 bf, 5 kn, 2.6 m/s, 5.8 miles/h, 9.3 km/h
Wind direction:NW, 310° - NE, 040°
Visibility:Greater than 10000 m, 10 km, 32800 ft, 6.2 miles
Temperature:25°C, 77°F
Gefühlte Temperatur:26°C, 79°F
Dew-point:16°C, 61°F
Atmospheric pressure:1013 hPa, 759.8 mmHg, 29.91 inHg, 1.000 atm
Relative humidity:57.4 %
METAR:LBGO 181130Z AUTO 35005KT 310V040 9999 NCD 25/16 Q1013 NOSIG

Snelkoppelingen

Actuele weersinformatie van de hele wereld. Voeg locaties toe met het plus (+) symbool. Deze snelkoppelingen kunnen worden toegevoegd aan Google.

Lid van de Technetium groep

website free tracking
StatCounter NetStat W3C Validator

02-10-2022 08:41:15
astro.technetium.be money.technetium.be phote.technetium.be tafeltennistafel.technetium.be www.ligfiets.net